Time;durP1;ratioP1;P1;durP2;ratioP2;P2;SDS_P1;SDS_P2;PMS_P1;PMS_P2;Temp;Humidity;BMP_temperature;BMP_pressure;BME280_temperature;BME280_humidity;BME280_pressure;Samples;Min_cycle;Max_cycle;Signal;HPM_P1;HPM_P2
2022/01/13 00:00:18;;;;;;;124.72;76.43;;;51.60;2176.00;;;;;;5093371;28;20068;-72
2022/01/13 00:02:45;;;;;;;132.48;79.32;;;51.70;2176.00;;;;;;5110463;28;20039;-72
2022/01/13 00:05:11;;;;;;;163.55;99.80;;;51.80;2124.80;;;;;;5093546;28;20529;-69
2022/01/13 00:07:37;;;;;;;120.50;70.70;;;51.60;2150.40;;;;;;5110311;28;20114;-73
2022/01/13 00:10:04;;;;;;;154.13;98.18;;;51.30;2150.40;;;;;;5110422;28;20472;-72
2022/01/13 00:12:35;;;;;;;133.93;78.88;;;51.20;2201.60;;;;;;5110581;28;20055;-70
2022/01/13 00:25:13;;;;;;;136.73;83.80;;;51.50;2201.60;;;;;;5133109;27;20477;-74
2022/01/13 00:27:48;;;;;;;121.25;73.32;;;51.60;2201.60;;;;;;5137120;27;20084;-71
2022/01/13 00:30:17;;;;;;;121.18;71.97;;;51.80;2176.00;;;;;;5136978;27;20026;-70
2022/01/13 00:32:44;;;;;;;121.10;70.70;;;51.50;2150.40;;;;;;5136934;27;20023;-71
2022/01/13 00:35:10;;;;;;;118.63;66.82;;;51.40;2176.00;;;;;;5136986;27;20446;-68
2022/01/13 00:37:37;;;;;;;98.13;58.13;;;51.40;2176.00;;;;;;5136897;27;20488;-71
2022/01/13 00:40:05;;;;;;;93.90;54.72;;;51.30;2176.00;;;;;;5135470;27;20044;-71
2022/01/13 00:42:32;;;;;;;85.70;49.58;;;51.30;2227.20;;;;;;5136735;27;20027;-71
2022/01/13 00:45:01;;;;;;;103.80;58.47;;;51.30;2227.20;;;;;;5137017;27;20034;-72
2022/01/13 00:47:30;;;;;;;110.55;62.95;;;26.50;2201.60;;;;;;5136912;27;20023;-71
2022/01/13 00:49:57;;;;;;;106.63;61.58;;;;;;;;;;5101840;27;20497;-71
2022/01/13 00:52:25;;;;;;;108.60;63.33;;;;;;;;;;5136381;27;20059;-71
2022/01/13 00:54:55;;;;;;;104.90;64.05;;;;;;;;;;5136512;27;20019;-69
2022/01/13 00:57:21;;;;;;;114.57;67.13;;;51.50;2227.20;;;;;;5136626;27;20015;-71
2022/01/13 00:59:47;;;;;;;109.47;63.25;;;51.60;2227.20;;;;;;5117561;27;20031;-72
2022/01/13 01:02:15;;;;;;;113.53;68.60;;;51.80;2201.60;;;;;;5136496;27;20027;-73
2022/01/13 01:04:40;;;;;;;108.22;63.72;;;52.00;2124.80;;;;;;5136625;27;20034;-73
2022/01/13 01:07:06;;;;;;;111.43;66.43;;;52.00;2099.20;;;;;;5136409;27;20019;-73
2022/01/13 01:09:48;;;;;;;98.82;59.50;;;51.80;2124.80;;;;;;5136491;27;20026;-72
2022/01/13 01:12:14;;;;;;;96.40;56.83;;;51.90;2201.60;;;;;;5120803;27;20072;-73
2022/01/13 01:14:46;;;;;;;106.13;63.90;;;51.50;2124.80;;;;;;5136590;27;20066;-72
2022/01/13 01:17:15;;;;;;;112.75;64.85;;;51.60;2150.40;;;;;;5136748;27;20030;-73
2022/01/13 01:19:44;;;;;;;124.75;70.72;;;51.70;2124.80;;;;;;5136584;27;20054;-73
2022/01/13 01:27:22;;;;;;;95.70;56.60;;;;;;;;;;5136328;27;20061;-71
2022/01/13 01:30:09;;;;;;;95.55;58.33;;;26.50;2176.00;;;;;;5136190;27;20497;-72
2022/01/13 01:32:37;;;;;;;86.53;53.20;;;26.30;2201.60;;;;;;5135919;27;20094;-70
2022/01/13 01:35:13;;;;;;;89.15;53.58;;;26.40;2201.60;;;;;;5136089;27;20084;-70
2022/01/13 01:37:40;;;;;;;84.20;49.60;;;;;;;;;;5136007;27;20550;-72
2022/01/13 01:40:06;;;;;;;90.32;52.00;;;;;;;;;;5135993;27;20023;-72
2022/01/13 01:42:32;;;;;;;85.00;51.95;;;;;;;;;;5135624;27;20027;-72
2022/01/13 01:45:00;;;;;;;101.25;56.05;;;;;;;;;;5135507;27;20031;-72
2022/01/13 01:47:29;;;;;;;95.18;56.63;;;26.00;2201.60;;;;;;5135675;27;20027;-73
2022/01/13 01:50:11;;;;;;;102.03;58.42;;;26.10;2201.60;;;;;;5135804;27;20115;-74
2022/01/13 01:52:38;;;;;;;107.95;61.92;;;26.30;2201.60;;;;;;5135582;27;20047;-73
2022/01/13 01:55:05;;;;;;;114.22;63.38;;;26.10;2201.60;;;;;;5135667;27;20023;-73
2022/01/13 01:57:31;;;;;;;95.43;52.03;;;26.10;2201.60;;;;;;5135541;27;20354;-73
2022/01/13 01:59:57;;;;;;;94.20;54.67;;;26.00;2201.60;;;;;;5135306;27;20023;-72
2022/01/13 02:02:26;;;;;;;87.97;50.83;;;;;;;;;;5135417;27;20033;-70
2022/01/13 02:04:52;;;;;;;94.45;54.47;;;;;;;;;;5135455;27;20027;-72
2022/01/13 02:07:20;;;;;;;81.95;50.33;;;;;;;;;;5135460;27;20020;-72
2022/01/13 02:09:51;;;;;;;85.97;48.65;;;;;;;;;;5117069;27;20023;-72
2022/01/13 02:12:41;;;;;;;93.95;53.00;;;26.10;2201.60;;;;;;5135292;27;20016;-73
2022/01/13 02:17:34;;;;;;;94.35;54.70;;;;;;;;;;5135125;27;20038;-72
2022/01/13 02:20:03;;;;;;;87.78;50.60;;;;;;;;;;5116277;27;20023;-72
2022/01/13 02:22:32;;;;;;;91.35;52.70;;;;;;;;;;5135220;27;20521;-72
2022/01/13 02:24:58;;;;;;;87.72;51.35;;;;;;;;;;5134991;27;20381;-71
2022/01/13 02:27:25;;;;;;;81.45;45.78;;;;;;;;;;5135175;27;20369;-72
2022/01/13 02:29:51;;;;;;;90.60;47.53;;;;;;;;;;5134881;27;20031;-72
2022/01/13 02:32:17;;;;;;;84.60;48.28;;;;;;;;;;5134865;27;20393;-72
2022/01/13 02:34:43;;;;;;;81.35;46.47;;;;;;;;;;5135101;27;20023;-72
2022/01/13 02:37:09;;;;;;;81.57;45.63;;;;;;;;;;5134748;27;20031;-72
2022/01/13 02:39:36;;;;;;;97.28;56.17;;;;;;;;;;5134643;27;20023;-72
2022/01/13 02:42:03;;;;;;;95.55;53.58;;;;;;;;;;5134975;27;20114;-72
2022/01/13 02:44:30;;;;;;;91.80;54.50;;;;;;;;;;5134695;27;20121;-71
2022/01/13 02:47:32;;;;;;;84.93;49.38;;;;;;;;;;5134437;27;20020;-72
2022/01/13 02:49:55;;;;;;;91.68;53.63;;;;;;;;;;5134330;27;20084;-72
2022/01/13 02:52:21;;;;;;;91.65;51.70;;;;;;;;;;5134138;27;20050;-72
2022/01/13 02:54:47;;;;;;;83.32;48.15;;;;;;;;;;5134555;27;20106;-72
2022/01/13 02:57:13;;;;;;;78.13;45.13;;;;;;;;;;5133089;27;20401;-72
2022/01/13 02:59:39;;;;;;;69.32;39.75;;;;;;;;;;5134503;27;20442;-72
2022/01/13 03:02:05;;;;;;;67.72;40.53;;;;;;;;;;5134240;27;20424;-70
2022/01/13 03:04:32;;;;;;;76.13;42.08;;;;;;;;;;5134371;27;20027;-71
2022/01/13 03:06:58;;;;;;;85.78;47.67;;;;;;;;;;5134040;27;20019;-68
2022/01/13 03:09:27;;;;;;;77.65;44.25;;;;;;;;;;5134134;27;20027;-73
2022/01/13 03:11:53;;;;;;;65.75;39.10;;;;;;;;;;5134266;27;20047;-72
2022/01/13 03:14:19;;;;;;;74.13;45.08;;;;;;;;;;5134057;27;20081;-73
2022/01/13 03:16:45;;;;;;;73.55;42.67;;;;;;;;;;5134108;27;20030;-73
2022/01/13 03:19:12;;;;;;;80.80;45.35;;;;;;;;;;5133942;27;20114;-72
2022/01/13 03:21:38;;;;;;;79.43;47.50;;;51.80;2201.60;;;;;;5133767;27;20031;-74
2022/01/13 03:24:10;;;;;;;90.35;50.20;;;51.70;2201.60;;;;;;5134077;27;20384;-73
2022/01/13 03:26:38;;;;;;;96.18;54.92;;;51.70;2227.20;;;;;;5134095;27;20182;-74
2022/01/13 03:31:35;;;;;;;80.25;48.13;;;51.20;2227.20;;;;;;5133913;27;20022;-74
2022/01/13 03:34:01;;;;;;;83.53;47.83;;;51.40;2227.20;;;;;;5133759;27;20397;-74
2022/01/13 03:36:27;;;;;;;75.78;43.83;;;26.50;2201.60;;;;;;5133525;27;20114;-73
2022/01/13 03:38:56;;;;;;;68.55;40.30;;;26.40;2201.60;;;;;;5134002;27;20047;-73
2022/01/13 03:41:22;;;;;;;62.55;37.03;;;26.50;2201.60;;;;;;5133735;27;20023;-70
2022/01/13 03:43:54;;;;;;;61.85;36.33;;;26.20;2201.60;;;;;;5133685;27;20031;-71
2022/01/13 03:46:19;;;;;;;;;;;26.20;2201.60;;;;;;5134207;27;20484;-71
2022/01/13 03:48:46;;;;;;;77.38;45.42;;;26.00;2201.60;;;;;;5133585;28;19904;-67
2022/01/13 03:51:12;;;;;;;68.38;40.00;;;26.00;2201.60;;;;;;5133515;28;20027;-69
2022/01/13 03:53:38;;;;;;;68.70;41.05;;;26.10;2201.60;;;;;;5132219;28;20047;-72
2022/01/13 03:56:31;;;;;;;80.20;46.00;;;26.20;2201.60;;;;;;5133786;28;20020;-72
2022/01/13 03:59:27;;;;;;;82.18;48.75;;;26.20;2201.60;;;;;;5135363;27;20031;-69
2022/01/13 04:01:53;;;;;;;86.68;49.47;;;;;;;;;;5138073;27;20074;-68
2022/01/13 04:04:19;;;;;;;92.63;54.80;;;;;;;;;;5137624;27;20405;-69
2022/01/13 04:06:48;;;;;;;86.03;46.58;;;;;;;;;;5137921;27;20071;-71
2022/01/13 04:09:23;;;;;;;89.45;51.25;;;;;;;;;;5137716;27;20106;-71
2022/01/13 04:11:51;;;;;;;89.60;51.75;;;;;;;;;;5137630;27;20031;-71
2022/01/13 04:14:26;;;;;;;82.75;47.45;;;;;;;;;;5137469;27;20030;-71
2022/01/13 04:16:52;;;;;;;79.90;46.42;;;;;;;;;;5137610;27;20047;-71
2022/01/13 04:19:18;;;;;;;76.47;47.00;;;;;;;;;;5137589;27;20076;-71
2022/01/13 04:21:47;;;;;;;85.28;52.53;;;;;;;;;;5137412;27;20034;-70
2022/01/13 04:24:14;;;;;;;87.45;50.10;;;;;;;;;;5137216;27;20039;-71
2022/01/13 04:26:42;;;;;;;94.55;57.28;;;;;;;;;;5137230;27;20469;-71
2022/01/13 04:31:39;;;;;;;98.25;57.92;;;51.40;2227.20;;;;;;5137366;27;20092;-73
2022/01/13 04:34:05;;;;;;;100.57;57.75;;;51.40;2201.60;;;;;;5137208;27;20023;-71
2022/01/13 04:36:31;;;;;;;86.95;49.85;;;26.40;2201.60;;;;;;5137191;27;20102;-72
2022/01/13 04:38:56;;;;;;;85.10;49.80;;;26.50;2201.60;;;;;;5137552;27;20027;-71
2022/01/13 04:41:30;;;;;;;84.32;56.17;;;51.30;2227.20;;;;;;5136987;27;20054;-72
2022/01/13 04:43:58;;;;;;;64.25;37.72;;;51.20;2227.20;;;;;;5136956;27;20546;-70
2022/01/13 04:46:25;;;;;;;66.00;41.10;;;;;;;;;;5137001;27;20025;-71
2022/01/13 04:48:54;;;;;;;75.28;45.05;;;26.40;2201.60;;;;;;5136862;27;20066;-72
2022/01/13 04:51:19;;;;;;;66.72;38.90;;;26.40;2201.60;;;;;;5136667;27;20027;-71
2022/01/13 04:53:45;;;;;;;68.82;41.55;;;26.10;2201.60;;;;;;5136524;27;20092;-72
2022/01/13 04:56:15;;;;;;;71.95;42.83;;;;;;;;;;5136677;27;20373;-71
2022/01/13 04:58:42;;;;;;;73.20;43.70;;;;;;;;;;5136835;27;20019;-71
2022/01/13 05:01:08;;;;;;;64.47;38.42;;;;;;;;;;5137052;27;20026;-71
2022/01/13 05:03:34;;;;;;;66.25;39.55;;;;;;;;;;5136603;27;20505;-72
2022/01/13 05:06:00;;;;;;;76.28;46.45;;;;;;;;;;5136609;27;20042;-71
2022/01/13 05:08:28;;;;;;;83.18;52.58;;;;;;;;;;5136560;27;20027;-72
2022/01/13 05:10:54;;;;;;;86.95;50.67;;;;;;;;;;5136360;27;20016;-71
2022/01/13 05:13:21;;;;;;;89.35;54.25;;;;;;;;;;5136655;27;20030;-71
2022/01/13 05:15:49;;;;;;;70.82;42.92;;;;;;;;;;5136998;27;20068;-69
2022/01/13 05:20:46;;;;;;;77.70;44.00;;;;;;;;;;5136452;27;20031;-72
2022/01/13 05:23:12;;;;;;;78.93;46.25;;;;;;;;;;5136081;27;20039;-71
2022/01/13 05:25:41;;;;;;;81.10;47.55;;;;;;;;;;5136110;27;20030;-71
2022/01/13 05:28:07;;;;;;;92.15;54.10;;;;;;;;;;5136057;27;20015;-72
2022/01/13 05:30:33;;;;;;;105.38;58.72;;;0.30;2201.60;;;;;;5136044;27;20481;-68
2022/01/13 05:32:59;;;;;;;94.78;52.40;;;0.40;2201.60;;;;;;5135953;27;20030;-72
2022/01/13 05:35:25;;;;;;;100.20;56.38;;;0.30;2201.60;;;;;;5135951;27;20051;-72
2022/01/13 05:37:52;;;;;;;94.50;54.88;;;0.50;2201.60;;;;;;5135730;27;20488;-72
2022/01/13 05:40:17;;;;;;;94.07;50.85;;;0.50;2201.60;;;;;;5135788;27;20076;-72
2022/01/13 05:42:43;;;;;;;90.07;54.33;;;0.40;2201.60;;;;;;5135899;27;20432;-67
2022/01/13 05:45:15;;;;;;;89.57;53.10;;;0.40;2201.60;;;;;;5135873;27;20027;-66
2022/01/13 05:47:43;;;;;;;98.00;56.10;;;0.70;2201.60;;;;;;5135806;27;20362;-69
2022/01/13 05:50:13;;;;;;;94.70;56.15;;;0.40;2201.60;;;;;;5135657;27;20019;-72
2022/01/13 05:52:39;;;;;;;102.35;60.78;;;;;;;;;;5135385;27;20063;-70
2022/01/13 05:55:06;;;;;;;99.30;61.22;;;;;;;;;;5135454;27;20024;-72
2022/01/13 05:57:32;;;;;;;110.15;69.90;;;;;;;;;;5135483;27;20492;-68
2022/01/13 05:59:58;;;;;;;110.18;69.50;;;;;;;;;;5135571;27;20066;-67
2022/01/13 06:02:24;;;;;;;110.88;72.43;;;;;;;;;;5135360;27;20019;-71
2022/01/13 06:04:53;;;;;;;103.93;64.18;;;;;;;;;;5135244;27;20032;-71
2022/01/13 06:07:19;;;;;;;112.75;65.68;;;;;;;;;;5135443;27;20039;-69
2022/01/13 06:09:48;;;;;;;122.03;72.50;;;;;;;;;;5135195;27;20026;-70
2022/01/13 06:12:19;;;;;;;124.93;73.03;;;;;;;;;;5135275;27;20540;-71
2022/01/13 06:14:45;;;;;;;114.85;69.05;;;;;;;;;;5135221;27;20069;-68
2022/01/13 06:17:11;;;;;;;122.90;75.47;;;;;;;;;;5134987;27;20492;-67
2022/01/13 06:19:37;;;;;;;114.65;69.18;;;;;;;;;;5134992;27;20034;-70
2022/01/13 06:22:04;;;;;;;91.35;58.25;;;;;;;;;;5134302;27;20031;-71
2022/01/13 06:24:33;;;;;;;97.55;59.60;;;;;;;;;;5134935;27;20117;-70
2022/01/13 06:27:02;;;;;;;101.60;58.30;;;;;;;;;;5135015;27;20072;-71
2022/01/13 06:29:28;;;;;;;95.97;59.88;;;;;;;;;;5134880;27;20084;-71
2022/01/13 06:31:56;;;;;;;106.35;62.35;;;;;;;;;;5134946;27;20023;-67
2022/01/13 06:34:22;;;;;;;98.13;62.60;;;;;;;;;;5134840;27;20363;-72
2022/01/13 06:36:48;;;;;;;113.88;74.32;;;;;;;;;;5134763;27;20029;-71
2022/01/13 06:39:14;;;;;;;93.32;63.08;;;;;;;;;;5134790;27;20034;-70
2022/01/13 06:41:41;;;;;;;87.82;55.58;;;;;;;;;;5134918;27;20019;-70
2022/01/13 06:44:07;;;;;;;98.40;61.67;;;;;;;;;;5134509;27;20065;-67
2022/01/13 06:46:33;;;;;;;99.38;62.40;;;;;;;;;;5134637;27;20111;-71
2022/01/13 06:48:59;;;;;;;116.80;69.10;;;;;;;;;;5134670;27;20370;-71
2022/01/13 06:51:25;;;;;;;124.72;76.13;;;;;;;;;;5134038;27;20022;-70
2022/01/13 06:53:54;;;;;;;131.20;81.35;;;;;;;;;;5133573;27;20082;-72
2022/01/13 06:56:21;;;;;;;126.55;77.13;;;;;;;;;;5134453;27;20064;-69
2022/01/13 06:58:49;;;;;;;138.35;81.28;;;;;;;;;;5134509;27;20489;-73
2022/01/13 07:01:15;;;;;;;129.63;79.80;;;;;;;;;;5134072;27;20084;-67
2022/01/13 07:03:41;;;;;;;125.93;76.65;;;;;;;;;;5134359;27;20454;-67
2022/01/13 07:06:07;;;;;;;117.63;72.22;;;51.60;2227.20;;;;;;5132616;27;20019;-65
2022/01/13 07:08:33;;;;;;;128.55;81.07;;;51.50;2227.20;;;;;;5133879;27;20050;-67
2022/01/13 07:11:03;;;;;;;145.75;91.55;;;51.30;2227.20;;;;;;5133890;27;20023;-72
2022/01/13 07:13:30;;;;;;;152.77;94.35;;;26.50;2201.60;;;;;;5134058;27;20027;-72
2022/01/13 07:15:58;;;;;;;180.68;109.07;;;51.50;2227.20;;;;;;5133902;27;20023;-72
2022/01/13 07:18:24;;;;;;;182.18;110.28;;;51.70;2227.20;;;;;;5133730;27;20032;-71
2022/01/13 07:20:49;;;;;;;185.65;115.38;;;51.30;2227.20;;;;;;5133554;27;20102;-71
2022/01/13 07:23:16;;;;;;;185.25;113.22;;;;;;;;;;5133804;27;20388;-69
2022/01/13 07:25:42;;;;;;;171.10;105.28;;;;;;;;;;5133872;27;20079;-71
2022/01/13 07:28:08;;;;;;;134.30;82.13;;;;;;;;;;5133775;27;20381;-71
2022/01/13 07:30:34;;;;;;;116.80;72.95;;;;;;;;;;5133544;27;20023;-71
2022/01/13 07:33:00;;;;;;;146.95;89.45;;;51.50;2227.20;;;;;;5133680;27;20023;-70
2022/01/13 07:35:27;;;;;;;158.43;96.00;;;;;;;;;;5133422;27;20046;-71
2022/01/13 07:37:53;;;;;;;167.05;103.65;;;;;;;;;;5133592;27;20112;-68
2022/01/13 07:40:18;;;;;;;161.18;103.60;;;51.80;2227.20;;;;;;5133473;27;20029;-69
2022/01/13 07:42:46;;;;;;;151.40;100.90;;;52.00;2227.20;;;;;;5133473;27;20039;-66
2022/01/13 07:45:16;;;;;;;163.38;106.32;;;76.80;2227.20;;;;;;5133684;27;20084;-72
2022/01/13 07:47:42;;;;;;;151.20;97.72;;;52.10;2227.20;;;;;;5133344;27;20474;-73
2022/01/13 07:50:13;;;;;;;141.05;88.40;;;51.90;2227.20;;;;;;5133459;27;20023;-72
2022/01/13 07:52:39;;;;;;;128.48;79.50;;;51.90;2227.20;;;;;;5132946;27;20047;-71
2022/01/13 07:55:07;;;;;;;126.55;79.63;;;;;;;;;;5132001;28;20479;-67
2022/01/13 07:57:33;;;;;;;141.65;85.85;;;;;;;;;;5133246;28;20110;-72
2022/01/13 07:59:59;;;;;;;133.40;83.30;;;76.90;2227.20;;;;;;5133295;28;20424;-71
2022/01/13 08:02:27;;;;;;;167.77;105.35;;;76.90;2227.20;;;;;;5133415;28;20492;-72
2022/01/13 08:04:53;;;;;;;159.35;106.60;;;76.90;2227.20;;;;;;5133340;27;20027;-74
2022/01/13 08:07:19;;;;;;;165.68;107.13;;;76.80;2227.20;;;;;;5133038;27;20035;-71
2022/01/13 08:09:45;;;;;;;192.50;126.30;;;77.30;2176.00;;;;;;5133322;28;20079;-71
2022/01/13 08:12:10;;;;;;;132.73;86.80;;;77.40;2176.00;;;;;;5131503;28;20114;-72
2022/01/13 08:14:36;;;;;;;138.10;91.03;;;77.10;2176.00;;;;;;5133166;28;20091;-72
2022/01/13 08:17:03;;;;;;;125.93;79.25;;;77.30;2176.00;;;;;;5133192;28;20019;-72
2022/01/13 08:19:45;;;;;;;119.78;79.97;;;77.10;2176.00;;;;;;5133264;27;20022;-71
2022/01/13 08:22:12;;;;;;;108.57;78.80;;;;;;;;;;5132012;28;20031;-70
2022/01/13 08:24:38;;;;;;;126.60;80.65;;;;;;;;;;5133166;28;20067;-73
2022/01/13 08:27:07;;;;;;;152.50;99.97;;;102.80;2227.20;;;;;;5133232;28;20019;-71
2022/01/13 08:29:33;;;;;;;159.32;102.45;;;103.00;2048.00;;;;;;5132983;27;20033;-70
2022/01/13 08:31:59;;;;;;;159.98;104.65;;;102.50;2022.40;;;;;;5133100;27;20098;-68
2022/01/13 08:34:24;;;;;;;135.35;85.50;;;102.50;2048.00;;;;;;5133387;28;20030;-71
2022/01/13 08:36:50;;;;;;;154.52;100.05;;;102.50;1996.80;;;;;;5132670;28;20022;-73
2022/01/13 08:39:16;;;;;;;173.05;109.57;;;102.60;2048.00;;;;;;5133174;28;20057;-71
2022/01/13 08:41:43;;;;;;;178.15;127.13;;;;;;;;;;5132969;27;20047;-71
2022/01/13 08:44:09;;;;;;;160.32;106.43;;;128.10;1996.80;;;;;;5132833;28;20083;-71
2022/01/13 08:46:35;;;;;;;120.25;80.95;;;;;;;;;;5135178;27;20064;-71
2022/01/13 08:49:03;;;;;;;137.20;90.07;;;;;;;;;;5136821;27;20481;-69
2022/01/13 08:51:29;;;;;;;130.80;84.00;;;;;;;;;;5136487;27;20023;-67
2022/01/13 08:53:55;;;;;;;116.28;77.10;;;;;;;;;;5136183;27;20099;-71
2022/01/13 08:56:21;;;;;;;111.78;78.85;;;128.70;1817.60;;;;;;5136671;27;20541;-66
2022/01/13 08:58:47;;;;;;;115.80;74.38;;;;;;;;;;5136898;27;20025;-72
2022/01/13 09:01:14;;;;;;;123.47;78.28;;;153.70;1740.80;;;;;;5136877;27;20027;-73
2022/01/13 09:03:45;;;;;;;115.10;74.05;;;153.90;1689.60;;;;;;5136533;27;20042;-72
2022/01/13 09:06:11;;;;;;;279.40;151.93;;;;;;;;;;5135553;27;20019;-68
2022/01/13 09:08:37;;;;;;;196.93;121.07;;;;;;;;;;5136826;27;20019;-70
2022/01/13 09:11:03;;;;;;;205.32;124.07;;;;;;;;;;5136421;27;20023;-69
2022/01/13 09:13:35;;;;;;;90.03;60.47;;;;;;;;;;5136381;27;20023;-70
2022/01/13 09:16:00;;;;;;;66.35;42.88;;;230.70;1280.00;;;;;;5136169;27;20022;-72
2022/01/13 09:19:17;;;;;;;93.22;57.40;;;;;;;;;;5136220;27;20027;-70
2022/01/13 09:21:18;;;;;;;60.50;39.42;;;;;;;;;;5128149;27;20484;-69
2022/01/13 09:23:44;;;;;;;48.15;31.52;;;;;;;;;;5135755;27;20035;-69
2022/01/13 09:26:10;;;;;;;61.03;38.80;;;;;;;;;;5135816;27;20034;-70
2022/01/13 09:28:36;;;;;;;78.90;49.80;;;358.60;998.40;;;;;;5135903;27;20061;-71
2022/01/13 09:31:05;;;;;;;76.53;48.38;;;358.50;998.40;;;;;;5136186;27;20030;-69
2022/01/13 09:33:32;;;;;;;88.22;55.70;;;308.00;1075.20;;;;;;5135636;27;20042;-73
2022/01/13 09:35:58;;;;;;;89.32;52.00;;;;;;;;;;5135681;27;20034;-68
2022/01/13 09:38:25;;;;;;;56.22;36.90;;;;;;;;;;5135809;27;20030;-69
2022/01/13 09:40:54;;;;;;;56.88;40.42;;;;;;;;;;5135693;27;20051;-66
2022/01/13 09:43:26;;;;;;;61.58;41.22;;;;;;;;;;5135532;27;20541;-66
2022/01/13 09:45:54;;;;;;;54.83;37.10;;;435.30;844.80;;;;;;5135561;27;20393;-64
2022/01/13 09:48:20;;;;;;;44.97;31.63;;;;;;;;;;5135257;27;20069;-71
2022/01/13 09:50:47;;;;;;;59.58;40.30;;;;;;;;;;5135304;27;20019;-72
2022/01/13 09:53:14;;;;;;;56.50;38.00;;;;;;;;;;5135129;27;20043;-70
2022/01/13 09:55:41;;;;;;;71.70;47.08;;;;;;;;;;5135224;27;20469;-68
2022/01/13 09:58:10;;;;;;;39.75;31.58;;;;;;;;;;5135420;27;20023;-71
2022/01/13 10:00:37;;;;;;;34.42;27.52;;;;;;;;;;5135435;27;20031;-70
2022/01/13 10:03:14;;;;;;;39.97;30.73;;;409.90;844.80;;;;;;5134966;27;20031;-65
2022/01/13 10:05:47;;;;;;;56.95;41.38;;;;;;;;;;5135156;27;20476;-68
2022/01/13 10:08:13;;;;;;;55.60;40.65;;;;;;;;;;5135119;27;20027;-66
2022/01/13 10:10:39;;;;;;;37.20;27.80;;;;;;;;;;5134887;27;20050;-71
2022/01/13 10:13:09;;;;;;;35.42;26.65;;;;;;;;;;5134903;27;20027;-65
2022/01/13 10:18:41;;;;;;;39.45;29.30;;;;;;;;;;5135382;27;20054;-72
2022/01/13 10:21:08;;;;;;;49.17;33.95;;;;;;;;;;5135191;27;20130;-70
2022/01/13 10:23:35;;;;;;;43.78;33.58;;;;;;;;;;5133133;27;20051;-66
2022/01/13 10:26:12;;;;;;;38.67;29.77;;;;;;;;;;5134855;27;20041;-67
2022/01/13 10:28:39;;;;;;;37.90;27.90;;;;;;;;;;5134765;27;20497;-71
2022/01/13 10:31:05;;;;;;;50.95;37.38;;;;;;;;;;5134650;27;20019;-67
2022/01/13 10:33:31;;;;;;;40.72;30.10;;;;;;;;;;5134480;27;20098;-67
2022/01/13 10:36:07;;;;;;;42.58;31.05;;;;;;;;;;5134490;27;20106;-67
2022/01/13 10:38:52;;;;;;;49.45;35.20;;;;;;;;;;5134413;27;20019;-67
2022/01/13 10:41:31;;;;;;;94.60;56.38;;;;;;;;;;5134470;27;20458;-68
2022/01/13 10:44:16;;;;;;;95.75;54.78;;;;;;;;;;5134371;27;20035;-71
2022/01/13 10:47:03;;;;;;;33.85;24.10;;;436.10;742.40;;;;;;5134226;27;20140;-68
2022/01/13 10:49:37;;;;;;;55.63;38.53;;;;;;;;;;5134477;27;20185;-66
2022/01/13 10:52:16;;;;;;;69.22;52.83;;;;;;;;;;5133881;27;20023;-69
2022/01/13 10:54:42;;;;;;;61.65;48.50;;;;;;;;;;5134075;27;20481;-69
2022/01/13 10:57:18;;;;;;;57.88;47.22;;;;;;;;;;5134185;27;20030;-67
2022/01/13 10:59:44;;;;;;;47.35;38.92;;;461.70;742.40;;;;;;5134083;27;20071;-68
2022/01/13 11:02:10;;;;;;;46.92;38.03;;;461.20;793.60;;;;;;5134153;27;20027;-67
2022/01/13 11:04:37;;;;;;;38.58;29.35;;;;;;;;;;5131766;27;20039;-66
2022/01/13 11:07:16;;;;;;;47.00;34.22;;;;;;;;;;5133795;27;20332;-65
2022/01/13 11:09:43;;;;;;;64.72;45.78;;;;;;;;;;5133223;27;20023;-66
2022/01/13 11:12:10;;;;;;;56.53;41.63;;;;;;;;;;5133705;27;20045;-65
2022/01/13 11:14:43;;;;;;;60.95;42.30;;;;;;;;;;5133644;27;20462;-66
2022/01/13 11:17:12;;;;;;;56.67;41.95;;;;;;;;;;5133757;27;20019;-64
2022/01/13 11:19:41;;;;;;;50.58;35.33;;;460.90;793.60;;;;;;5133668;27;20027;-64
2022/01/13 11:22:07;;;;;;;43.17;32.40;;;;;;;;;;5133768;27;20024;-71
2022/01/13 11:24:33;;;;;;;46.63;33.95;;;;;;;;;;5132467;27;20054;-71
2022/01/13 11:27:00;;;;;;;43.47;29.83;;;;;;;;;;5133403;27;20024;-70
2022/01/13 11:29:27;;;;;;;44.80;31.98;;;;;;;;;;5133684;27;20064;-67
2022/01/13 11:31:53;;;;;;;44.85;33.35;;;;;;;;;;5133373;27;20110;-71
2022/01/13 11:34:19;;;;;;;56.05;41.67;;;;;;;;;;5133774;27;20051;-71
2022/01/13 11:36:45;;;;;;;55.78;39.75;;;;;;;;;;5133410;27;20389;-71
2022/01/13 11:39:11;;;;;;;48.30;35.15;;;;;;;;;;5133246;27;20062;-71
2022/01/13 11:42:00;;;;;;;45.38;32.60;;;384.80;870.40;;;;;;5133299;27;20126;-72
2022/01/13 11:44:27;;;;;;;43.70;32.95;;;384.90;870.40;;;;;;5133348;27;20035;-72
2022/01/13 11:46:53;;;;;;;45.30;30.83;;;409.60;870.40;;;;;;5133517;27;20030;-72
2022/01/13 11:49:22;;;;;;;47.50;33.17;;;384.80;870.40;;;;;;5131615;27;20027;-72
2022/01/13 11:51:56;;;;;;;58.40;39.72;;;384.50;870.40;;;;;;5127939;27;20023;-71
2022/01/13 11:54:48;;;;;;;89.57;55.33;;;359.20;921.60;;;;;;5127545;28;20122;-72
2022/01/13 11:57:20;;;;;;;57.80;40.42;;;359.10;947.20;;;;;;5130376;27;20036;-72
2022/01/13 11:59:55;;;;;;;71.70;45.08;;;;;;;;;;5133335;27;20047;-71
2022/01/13 12:02:26;;;;;;;48.72;34.20;;;359.10;947.20;;;;;;5132236;28;20393;-73
2022/01/13 12:04:59;;;;;;;66.93;45.83;;;;;;;;;;5133470;28;20027;-73
2022/01/13 12:07:58;;;;;;;71.78;48.15;;;;;;;;;;5133264;28;20019;-73
2022/01/13 12:10:24;;;;;;;59.60;41.92;;;358.80;947.20;;;;;;5070117;28;20036;-74
2022/01/13 12:12:51;;;;;;;51.20;37.95;;;358.80;947.20;;;;;;5069927;28;20032;-71
2022/01/13 12:15:21;;;;;;;66.18;49.40;;;;;;;;;;5052953;28;20020;-72
2022/01/13 12:17:48;;;;;;;51.38;38.97;;;;;;;;;;5069935;28;20169;-70
2022/01/13 12:20:53;;;;;;;93.13;69.32;;;;;;;;;;5071591;28;20047;-71
2022/01/13 12:23:38;;;;;;;57.92;37.47;;;;;;;;;;4994186;28;20061;-69
2022/01/13 12:26:24;;;;;;;49.38;36.72;;;;;;;;;;4994296;28;20043;-72
2022/01/13 12:29:10;;;;;;;63.92;45.20;;;;;;;;;;4994424;28;20059;-69
2022/01/13 12:31:53;;;;;;;66.20;43.67;;;308.10;972.80;;;;;;4977916;28;20026;-67
2022/01/13 12:34:20;;;;;;;78.20;50.58;;;;;;;;;;4994699;28;20034;-68
2022/01/13 12:36:46;;;;;;;66.82;43.47;;;;;;;;;;4994028;28;20030;-72
2022/01/13 12:39:15;;;;;;;68.50;47.83;;;308.10;998.40;;;;;;4994140;28;20109;-67
2022/01/13 12:42:21;;;;;;;51.10;37.55;;;332.80;1049.60;;;;;;4994214;28;20042;-64
2022/01/13 12:47:33;;;;;;;62.78;49.80;;;307.80;1049.60;;;;;;4994089;28;20390;-64
2022/01/13 12:49:59;;;;;;;85.25;67.45;;;;;;;;;;4994052;28;20030;-65
2022/01/13 12:52:27;;;;;;;83.93;69.85;;;;;;;;;;4967351;28;20442;-69
2022/01/13 12:54:54;;;;;;;82.30;63.47;;;;;;;;;;4958203;28;20133;-68
2022/01/13 12:57:22;;;;;;;53.55;40.20;;;;;;;;;;4974140;28;20079;-70
2022/01/13 12:59:48;;;;;;;56.05;40.05;;;;;;;;;;5022425;28;20032;-70
2022/01/13 13:02:14;;;;;;;44.35;34.90;;;;;;;;;;5036260;28;20033;-68
2022/01/13 13:04:43;;;;;;;62.38;43.22;;;;;;;;;;5053071;28;20037;-65
2022/01/13 13:07:09;;;;;;;59.35;39.72;;;;;;;;;;5052958;28;20029;-71
2022/01/13 13:09:35;;;;;;;56.10;39.22;;;;;;;;;;5052946;28;20028;-70
2022/01/13 13:12:03;;;;;;;64.68;43.67;;;;;;;;;;5052544;28;20609;-69
2022/01/13 13:14:39;;;;;;;53.88;36.42;;;;;;;;;;5052900;28;20112;-65
2022/01/13 13:17:07;;;;;;;50.97;36.03;;;;;;;;;;5052642;28;20464;-64
2022/01/13 13:19:42;;;;;;;59.45;40.83;;;;;;;;;;5052733;28;20032;-63
2022/01/13 13:22:08;;;;;;;54.13;38.42;;;;;;;;;;5134152;27;20070;-63
2022/01/13 13:24:37;;;;;;;61.40;41.15;;;;;;;;;;5135652;27;20035;-67
2022/01/13 13:27:04;;;;;;;46.10;33.72;;;;;;;;;;5135718;27;20019;-70
2022/01/13 13:29:30;;;;;;;51.92;33.97;;;;;;;;;;5135703;27;20027;-66
2022/01/13 13:31:56;;;;;;;49.25;35.03;;;;;;;;;;5135123;27;20051;-66
2022/01/13 13:34:28;;;;;;;97.57;56.28;;;282.50;1049.60;;;;;;5135799;27;20098;-70
2022/01/13 13:36:54;;;;;;;56.85;40.45;;;282.40;1075.20;;;;;;5135519;27;20041;-65
2022/01/13 13:39:25;;;;;;;48.60;32.83;;;282.40;1100.80;;;;;;5135380;27;20018;-65
2022/01/13 13:41:52;;;;;;;44.35;30.88;;;;;;;;;;5135571;27;20414;-66
2022/01/13 13:44:18;;;;;;;58.90;40.20;;;;;;;;;;5135350;27;20038;-66
2022/01/13 13:46:45;;;;;;;52.25;38.70;;;;;;;;;;5135374;27;20421;-66
2022/01/13 13:49:11;;;;;;;62.45;42.58;;;;;;;;;;5135542;27;20087;-65
2022/01/13 13:51:38;;;;;;;74.07;49.35;;;;;;;;;;5135476;27;20466;-66
2022/01/13 13:54:13;;;;;;;66.88;46.67;;;;;;;;;;5135392;27;20309;-66
2022/01/13 13:56:40;;;;;;;61.40;44.20;;;;;;;;;;5135525;27;20168;-66